createdAt,value
2018-11-12T00:04:12.578Z,26.23
2018-11-12T00:09:15.798Z,20.00
2018-11-12T00:14:19.071Z,26.00
2018-11-12T00:19:22.375Z,23.10
2018-11-12T00:24:25.589Z,25.77
2018-11-12T00:29:28.812Z,24.47
2018-11-12T00:34:32.075Z,20.00
2018-11-12T00:39:35.295Z,22.30
2018-11-12T00:44:38.576Z,18.93
2018-11-12T00:49:41.972Z,20.53
2018-11-12T00:54:45.265Z,18.07
2018-11-12T00:59:48.529Z,17.40
2018-11-12T01:04:51.767Z,18.70
2018-11-12T01:09:55.036Z,17.30
2018-11-12T01:14:59.281Z,19.90
2018-11-12T01:20:03.176Z,19.10
2018-11-12T01:25:07.104Z,17.97
2018-11-12T01:30:13.429Z,19.07
2018-11-12T01:35:17.530Z,16.97
2018-11-12T01:40:20.865Z,18.60
2018-11-12T01:45:24.145Z,16.13
2018-11-12T01:50:27.640Z,16.70
2018-11-12T01:55:30.953Z,23.37
2018-11-12T02:00:34.266Z,17.50
2018-11-12T02:05:37.614Z,15.33
2018-11-12T02:10:40.908Z,16.80
2018-11-12T02:15:44.146Z,20.17
2018-11-12T02:20:47.367Z,16.60
2018-11-12T02:25:50.586Z,15.50
2018-11-12T02:30:53.846Z,16.23
2018-11-12T02:35:57.106Z,18.07
2018-11-12T02:41:00.398Z,16.33
2018-11-12T02:46:03.710Z,14.43
2018-11-12T02:51:07.226Z,15.23
2018-11-12T02:56:10.441Z,15.37
2018-11-12T03:01:17.072Z,13.80
2018-11-12T03:06:20.587Z,14.50
2018-11-12T03:11:23.994Z,14.27
2018-11-12T03:16:27.233Z,17.67
2018-11-12T03:21:30.439Z,18.87
2018-11-12T03:26:33.659Z,14.57
2018-11-12T03:31:36.913Z,14.10
2018-11-12T03:36:40.328Z,15.47
2018-11-12T03:41:43.805Z,13.50
2018-11-12T03:46:47.032Z,19.57
2018-11-12T03:51:50.313Z,13.90
2018-11-12T03:56:53.542Z,17.40
2018-11-12T04:01:56.756Z,14.70
2018-11-12T04:07:00.088Z,12.60
2018-11-12T04:12:03.338Z,15.30
2018-11-12T04:17:06.571Z,12.00
2018-11-12T04:22:09.794Z,13.43
2018-11-12T04:27:13.395Z,13.57
2018-11-12T04:32:16.620Z,12.83
2018-11-12T04:37:19.864Z,15.03
2018-11-12T04:42:23.102Z,12.93
2018-11-12T04:47:26.417Z,14.10
2018-11-12T04:52:29.899Z,13.70
2018-11-12T04:57:33.118Z,15.63
2018-11-12T05:02:36.367Z,13.80
2018-11-12T05:07:39.650Z,15.67
2018-11-12T05:12:43.515Z,15.03
2018-11-12T05:17:46.948Z,10.57
2018-11-12T05:22:50.266Z,13.77
2018-11-12T05:27:53.506Z,13.50
2018-11-12T05:32:57.562Z,15.87
2018-11-12T05:38:00.853Z,12.00
2018-11-12T05:43:04.340Z,11.80
2018-11-12T05:48:07.564Z,13.20
2018-11-12T05:53:10.809Z,12.70
2018-11-12T05:58:14.132Z,13.17
2018-11-12T06:03:17.365Z,11.40
2018-11-12T06:08:20.853Z,12.50
2018-11-12T06:13:24.283Z,11.53
2018-11-12T06:18:28.017Z,11.60
2018-11-12T06:23:31.361Z,14.77
2018-11-12T06:28:34.733Z,12.03
2018-11-12T06:33:38.017Z,11.33
2018-11-12T06:38:41.269Z,16.13
2018-11-12T06:43:44.680Z,13.90
2018-11-12T06:48:48.070Z,11.00
2018-11-12T06:53:51.331Z,11.97
2018-11-12T06:58:54.649Z,13.80
2018-11-12T07:03:57.900Z,10.70
2018-11-12T07:09:01.154Z,10.50
2018-11-12T07:14:05.536Z,11.90
2018-11-12T07:19:08.815Z,9.57
2018-11-12T07:24:12.280Z,9.27
2018-11-12T07:29:15.559Z,9.07
2018-11-12T07:34:19.050Z,7.80
2018-11-12T07:39:22.386Z,9.90
2018-11-12T07:44:27.414Z,9.13
2018-11-12T07:49:31.219Z,9.17
2018-11-12T07:54:38.069Z,11.37
2018-11-12T07:59:41.518Z,9.40
2018-11-12T08:04:45.244Z,10.80
2018-11-12T08:09:48.674Z,10.23
2018-11-12T08:15:00.469Z,11.10
2018-11-12T08:20:03.753Z,9.00
2018-11-12T08:25:07.811Z,8.93
2018-11-12T08:30:13.665Z,8.97
2018-11-12T08:35:20.275Z,9.40
2018-11-12T08:40:25.356Z,8.50
2018-11-12T08:45:28.838Z,12.83
2018-11-12T08:50:32.175Z,9.43
2018-11-12T08:55:35.426Z,8.90
2018-11-12T09:00:38.733Z,9.03
2018-11-12T09:05:42.094Z,9.97
2018-11-12T09:10:45.268Z,8.07
2018-11-12T09:15:48.742Z,8.73
2018-11-12T09:20:52.182Z,9.60
2018-11-12T09:25:55.436Z,8.13
2018-11-12T09:31:00.255Z,6.63
2018-11-12T09:36:03.307Z,8.03
2018-11-12T09:41:07.841Z,8.77
2018-11-12T09:46:12.109Z,8.50
2018-11-12T09:51:15.340Z,11.70
2018-11-12T09:56:18.628Z,13.67
2018-11-12T10:01:22.276Z,10.13
2018-11-12T10:06:26.551Z,11.10
2018-11-12T10:11:31.780Z,8.73
2018-11-12T10:16:34.590Z,20.63
2018-11-12T10:21:35.061Z,10.90
2018-11-12T10:26:38.320Z,11.60
2018-11-12T10:31:41.628Z,11.20
2018-11-12T10:36:44.919Z,11.40
2018-11-12T10:41:48.308Z,14.07
2018-11-12T10:46:51.593Z,17.83
2018-11-12T10:51:54.880Z,9.07
2018-11-12T10:56:58.075Z,14.73
2018-11-12T11:02:06.641Z,20.53
2018-11-12T11:07:09.905Z,14.10
2018-11-12T11:12:13.096Z,12.37
2018-11-12T11:17:16.503Z,9.77
2018-11-12T11:22:19.860Z,12.23
2018-11-12T11:27:23.139Z,11.13
2018-11-12T11:32:26.605Z,12.13
2018-11-12T11:37:29.948Z,12.10
2018-11-12T11:42:34.030Z,12.77
2018-11-12T11:47:37.752Z,17.33
2018-11-12T11:52:40.925Z,12.47
2018-11-12T11:57:44.480Z,8.17
2018-11-12T12:02:48.895Z,9.87
2018-11-12T12:07:52.812Z,8.03
2018-11-12T12:12:56.081Z,11.73
2018-11-12T12:17:59.675Z,11.50
2018-11-12T12:23:02.952Z,10.90
2018-11-12T12:28:06.775Z,9.33
2018-11-12T12:33:10.037Z,8.37
2018-11-12T12:38:13.902Z,10.40
2018-11-12T12:43:17.230Z,11.03
2018-11-12T12:48:21.302Z,9.63
2018-11-12T12:53:24.786Z,7.97
2018-11-12T12:58:28.237Z,12.40
2018-11-12T13:03:31.386Z,8.93
2018-11-12T13:08:34.628Z,9.53
2018-11-12T13:13:37.875Z,10.20
2018-11-12T13:18:41.133Z,9.80
2018-11-12T13:23:44.358Z,10.23
2018-11-12T13:28:48.008Z,10.10
2018-11-12T13:33:51.290Z,8.87
2018-11-12T13:38:54.983Z,10.10
2018-11-12T13:43:59.029Z,10.33
2018-11-12T13:49:03.373Z,7.30
2018-11-12T13:54:07.653Z,8.70
2018-11-12T13:59:11.203Z,7.50
2018-11-12T14:04:14.935Z,9.30
2018-11-12T14:09:18.254Z,10.30
2018-11-12T14:14:22.447Z,9.37
2018-11-12T14:19:26.286Z,7.70
2018-11-12T14:24:29.584Z,10.43
2018-11-12T14:29:33.384Z,10.40
2018-11-12T14:34:37.034Z,7.73
2018-11-12T14:39:40.459Z,7.77
2018-11-12T14:44:43.833Z,9.43
2018-11-12T14:49:47.168Z,7.40
2018-11-12T14:54:53.583Z,7.13
2018-11-12T14:59:57.374Z,8.80
2018-11-12T15:05:01.338Z,7.60
2018-11-12T15:10:06.359Z,11.63
2018-11-12T15:15:10.799Z,11.30
2018-11-12T15:20:15.634Z,8.40
2018-11-12T15:25:20.569Z,7.90
2018-11-12T15:30:25.092Z,14.80
2018-11-12T15:35:28.669Z,7.23
2018-11-12T15:40:31.957Z,6.97
2018-11-12T15:45:35.250Z,6.43
2018-11-12T15:50:38.521Z,6.50
2018-11-12T15:55:41.897Z,9.67
2018-11-12T16:00:46.082Z,7.13
2018-11-12T16:05:49.401Z,6.60
2018-11-12T16:10:52.880Z,7.70
2018-11-12T16:15:56.597Z,7.00
2018-11-12T16:21:00.108Z,6.73
2018-11-12T16:26:03.399Z,10.40
2018-11-12T16:31:06.605Z,11.80
2018-11-12T16:36:09.901Z,10.83
2018-11-12T16:41:13.146Z,7.33
2018-11-12T16:46:16.391Z,8.13
2018-11-12T16:51:20.425Z,10.27
2018-11-12T16:56:23.727Z,7.23
2018-11-12T17:01:27.051Z,11.13
2018-11-12T17:06:30.298Z,7.83
2018-11-12T17:11:33.574Z,9.00
2018-11-12T17:16:37.110Z,7.13
2018-11-12T17:21:40.768Z,8.50
2018-11-12T17:26:44.612Z,7.47
2018-11-12T17:31:47.937Z,6.40
2018-11-12T17:36:51.161Z,6.70
2018-11-12T17:41:54.467Z,11.27
2018-11-12T17:46:58.891Z,9.13
2018-11-12T17:52:02.313Z,14.07
2018-11-12T17:57:05.694Z,12.33
2018-11-12T18:02:09.012Z,11.03
2018-11-12T18:07:12.601Z,11.37
2018-11-12T18:12:15.981Z,8.13
2018-11-12T18:17:19.470Z,7.97
2018-11-12T18:22:22.984Z,9.67
2018-11-12T18:27:26.519Z,9.43
2018-11-12T18:32:29.822Z,9.57
2018-11-12T18:37:33.229Z,8.30
2018-11-12T18:42:36.923Z,11.13
2018-11-12T18:47:40.581Z,8.13
2018-11-12T18:52:44.260Z,12.90
2018-11-12T18:57:48.517Z,9.40
2018-11-12T19:02:52.047Z,9.70
2018-11-12T19:07:56.874Z,9.17
2018-11-12T19:13:00.579Z,9.27
2018-11-12T19:18:06.520Z,9.30
2018-11-12T19:23:10.363Z,8.30
2018-11-12T19:28:14.637Z,9.33
2018-11-12T19:33:17.932Z,13.30
2018-11-12T19:38:21.383Z,7.80
2018-11-12T19:43:24.724Z,8.53
2018-11-12T19:48:28.290Z,8.93
2018-11-12T19:53:31.654Z,7.30
2018-11-12T19:58:35.010Z,9.90
2018-11-12T20:03:38.343Z,7.60
2018-11-12T20:08:41.853Z,10.77
2018-11-12T20:13:45.573Z,7.07
2018-11-12T20:18:48.963Z,7.40
2018-11-12T20:23:52.365Z,7.63
2018-11-12T20:28:55.862Z,8.17
2018-11-12T20:33:59.676Z,6.73
2018-11-12T20:39:05.464Z,5.40
2018-11-12T20:44:10.188Z,8.70
2018-11-12T20:49:13.743Z,7.60
2018-11-12T20:54:17.170Z,10.83
2018-11-12T20:59:20.913Z,6.03
2018-11-12T21:04:24.892Z,7.20
2018-11-12T21:09:28.289Z,10.50
2018-11-12T21:14:31.848Z,6.47
2018-11-12T21:19:35.521Z,7.37
2018-11-12T21:24:43.542Z,6.67
2018-11-12T21:29:48.180Z,7.43
2018-11-12T21:34:58.877Z,8.50
2018-11-12T21:40:03.888Z,8.67
2018-11-12T21:45:08.362Z,9.57
2018-11-12T21:50:13.636Z,7.07
2018-11-12T21:55:17.078Z,6.47
2018-11-12T22:00:22.839Z,7.03
2018-11-12T22:05:27.414Z,8.30
2018-11-12T22:10:31.151Z,6.00
2018-11-12T22:15:34.519Z,8.33
2018-11-12T22:20:38.272Z,8.00
2018-11-12T22:25:43.326Z,7.30
2018-11-12T22:30:47.276Z,7.90
2018-11-12T22:35:51.056Z,10.30
2018-11-12T22:40:54.537Z,8.50
2018-11-12T22:45:57.942Z,8.27
2018-11-12T22:51:01.432Z,8.07
2018-11-12T22:56:05.389Z,10.80
2018-11-12T23:01:08.665Z,8.60
2018-11-12T23:06:12.834Z,8.40
2018-11-12T23:11:16.208Z,13.30
2018-11-12T23:16:19.962Z,6.37
2018-11-12T23:21:23.192Z,12.73
2018-11-12T23:26:26.484Z,9.10
2018-11-12T23:31:29.710Z,12.23
2018-11-12T23:36:34.181Z,9.83
2018-11-12T23:41:37.716Z,9.93
2018-11-12T23:46:40.918Z,7.40
2018-11-12T23:51:44.126Z,9.03
2018-11-12T23:56:47.560Z,12.37
